sensor_id;sensor_type;location;lat;lon;timestamp;temperature;humidity
52034;DHT22;38045;52.988;6.536;2023-05-16T00:01:21;8.90;99.90
52034;DHT22;38045;52.988;6.536;2023-05-16T00:03:47;8.90;99.90
52034;DHT22;38045;52.988;6.536;2023-05-16T00:06:13;8.90;99.90
52034;DHT22;38045;52.988;6.536;2023-05-16T00:08:39;8.80;99.90
52034;DHT22;38045;52.988;6.536;2023-05-16T00:11:05;8.80;99.90
52034;DHT22;38045;52.988;6.536;2023-05-16T00:13:31;8.80;99.90
52034;DHT22;38045;52.988;6.536;2023-05-16T00:15:56;8.80;99.90
52034;DHT22;38045;52.988;6.536;2023-05-16T00:18:23;8.70;99.90
52034;DHT22;38045;52.988;6.536;2023-05-16T00:20:50;8.70;99.90
52034;DHT22;38045;52.988;6.536;2023-05-16T00:23:16;8.70;99.90
52034;DHT22;38045;52.988;6.536;2023-05-16T00:25:42;8.70;99.90
52034;DHT22;38045;52.988;6.536;2023-05-16T00:28:08;8.70;99.90
52034;DHT22;38045;52.988;6.536;2023-05-16T00:30:34;8.70;99.90
52034;DHT22;38045;52.988;6.536;2023-05-16T00:32:59;8.70;99.90
52034;DHT22;38045;52.988;6.536;2023-05-16T00:35:25;8.60;99.90
52034;DHT22;38045;52.988;6.536;2023-05-16T00:37:51;8.60;99.90
52034;DHT22;38045;52.988;6.536;2023-05-16T00:40:17;8.60;99.90
52034;DHT22;38045;52.988;6.536;2023-05-16T00:42:42;8.60;99.90
52034;DHT22;38045;52.988;6.536;2023-05-16T00:45:09;8.50;99.90
52034;DHT22;38045;52.988;6.536;2023-05-16T00:47:35;8.60;99.90
52034;DHT22;38045;52.988;6.536;2023-05-16T00:50:01;8.50;99.90
52034;DHT22;38045;52.988;6.536;2023-05-16T00:52:27;8.50;99.90
52034;DHT22;38045;52.988;6.536;2023-05-16T00:54:53;8.50;99.90
52034;DHT22;38045;52.988;6.536;2023-05-16T00:57:19;8.40;99.90
52034;DHT22;38045;52.988;6.536;2023-05-16T00:59:45;8.40;99.90
52034;DHT22;38045;52.988;6.536;2023-05-16T01:02:12;8.40;99.90
52034;DHT22;38045;52.988;6.536;2023-05-16T01:04:38;8.40;99.90
52034;DHT22;38045;52.988;6.536;2023-05-16T01:07:04;8.30;99.90
52034;DHT22;38045;52.988;6.536;2023-05-16T01:09:30;8.30;99.90
52034;DHT22;38045;52.988;6.536;2023-05-16T01:17:20;8.20;99.90
52034;DHT22;38045;52.988;6.536;2023-05-16T01:20:11;8.20;99.90
52034;DHT22;38045;52.988;6.536;2023-05-16T01:28:01;8.10;99.90
52034;DHT22;38045;52.988;6.536;2023-05-16T01:30:32;8.00;99.90
52034;DHT22;38045;52.988;6.536;2023-05-16T01:32:59;8.00;99.90
52034;DHT22;38045;52.988;6.536;2023-05-16T01:35:25;8.00;99.90
52034;DHT22;38045;52.988;6.536;2023-05-16T01:40:37;7.90;99.90
52034;DHT22;38045;52.988;6.536;2023-05-16T01:43:11;7.90;99.90
52034;DHT22;38045;52.988;6.536;2023-05-16T01:45:43;7.90;99.90
52034;DHT22;38045;52.988;6.536;2023-05-16T01:48:15;7.80;99.90
52034;DHT22;38045;52.988;6.536;2023-05-16T01:50:49;7.80;99.90
52034;DHT22;38045;52.988;6.536;2023-05-16T01:53:21;7.80;99.90
52034;DHT22;38045;52.988;6.536;2023-05-16T01:55:50;7.70;99.90
52034;DHT22;38045;52.988;6.536;2023-05-16T01:58:18;7.60;99.90
52034;DHT22;38045;52.988;6.536;2023-05-16T02:00:44;7.60;99.90
52034;DHT22;38045;52.988;6.536;2023-05-16T02:03:10;7.50;99.90
52034;DHT22;38045;52.988;6.536;2023-05-16T02:05:35;7.50;99.90
52034;DHT22;38045;52.988;6.536;2023-05-16T02:08:01;7.40;99.90
52034;DHT22;38045;52.988;6.536;2023-05-16T02:10:28;7.40;99.90
52034;DHT22;38045;52.988;6.536;2023-05-16T02:12:53;7.40;99.90
52034;DHT22;38045;52.988;6.536;2023-05-16T02:15:19;7.40;99.90
52034;DHT22;38045;52.988;6.536;2023-05-16T02:17:45;7.40;99.90
52034;DHT22;38045;52.988;6.536;2023-05-16T02:20:12;7.40;99.90
52034;DHT22;38045;52.988;6.536;2023-05-16T02:22:37;7.50;99.90
52034;DHT22;38045;52.988;6.536;2023-05-16T02:25:12;7.50;99.90
52034;DHT22;38045;52.988;6.536;2023-05-16T02:27:38;7.50;99.90
52034;DHT22;38045;52.988;6.536;2023-05-16T02:30:03;7.50;99.90
52034;DHT22;38045;52.988;6.536;2023-05-16T02:32:31;7.50;99.90
52034;DHT22;38045;52.988;6.536;2023-05-16T02:34:56;7.50;99.90
52034;DHT22;38045;52.988;6.536;2023-05-16T02:37:22;7.50;99.90
52034;DHT22;38045;52.988;6.536;2023-05-16T02:39:48;7.50;99.90
52034;DHT22;38045;52.988;6.536;2023-05-16T02:42:13;7.50;99.90
52034;DHT22;38045;52.988;6.536;2023-05-16T02:44:39;7.60;99.90
52034;DHT22;38045;52.988;6.536;2023-05-16T02:47:05;7.60;99.90
52034;DHT22;38045;52.988;6.536;2023-05-16T02:49:31;7.60;99.90
52034;DHT22;38045;52.988;6.536;2023-05-16T02:51:56;7.60;99.90
52034;DHT22;38045;52.988;6.536;2023-05-16T02:54:22;7.60;99.90
52034;DHT22;38045;52.988;6.536;2023-05-16T02:56:47;7.60;99.90
52034;DHT22;38045;52.988;6.536;2023-05-16T02:59:14;7.50;99.90
52034;DHT22;38045;52.988;6.536;2023-05-16T03:01:39;7.50;99.90
52034;DHT22;38045;52.988;6.536;2023-05-16T03:04:05;7.50;99.90
52034;DHT22;38045;52.988;6.536;2023-05-16T03:06:31;7.40;99.90
52034;DHT22;38045;52.988;6.536;2023-05-16T03:08:56;7.40;99.90
52034;DHT22;38045;52.988;6.536;2023-05-16T03:11:22;7.30;99.90
52034;DHT22;38045;52.988;6.536;2023-05-16T03:13:49;7.30;99.90
52034;DHT22;38045;52.988;6.536;2023-05-16T03:16:15;7.20;99.90
52034;DHT22;38045;52.988;6.536;2023-05-16T03:18:41;7.10;99.90
52034;DHT22;38045;52.988;6.536;2023-05-16T03:21:07;7.10;99.90
52034;DHT22;38045;52.988;6.536;2023-05-16T03:23:32;7.10;99.90
52034;DHT22;38045;52.988;6.536;2023-05-16T03:25:58;7.00;99.90
52034;DHT22;38045;52.988;6.536;2023-05-16T03:28:23;7.00;99.90
52034;DHT22;38045;52.988;6.536;2023-05-16T03:30:49;6.90;99.90
52034;DHT22;38045;52.988;6.536;2023-05-16T03:33:15;6.90;99.90
52034;DHT22;38045;52.988;6.536;2023-05-16T03:35:42;6.90;99.90
52034;DHT22;38045;52.988;6.536;2023-05-16T03:38:08;6.90;99.90
52034;DHT22;38045;52.988;6.536;2023-05-16T03:40:34;6.90;99.90
52034;DHT22;38045;52.988;6.536;2023-05-16T03:43:00;6.90;99.90
52034;DHT22;38045;52.988;6.536;2023-05-16T03:45:25;6.80;99.90
52034;DHT22;38045;52.988;6.536;2023-05-16T03:47:51;6.80;99.90
52034;DHT22;38045;52.988;6.536;2023-05-16T03:50:17;6.80;99.90
52034;DHT22;38045;52.988;6.536;2023-05-16T03:52:42;6.70;99.90
52034;DHT22;38045;52.988;6.536;2023-05-16T03:55:08;6.70;99.90
52034;DHT22;38045;52.988;6.536;2023-05-16T03:57:35;6.70;99.90
52034;DHT22;38045;52.988;6.536;2023-05-16T04:00:02;6.70;99.90
52034;DHT22;38045;52.988;6.536;2023-05-16T04:02:31;6.70;99.90
52034;DHT22;38045;52.988;6.536;2023-05-16T04:04:56;6.70;99.90
52034;DHT22;38045;52.988;6.536;2023-05-16T04:07:22;6.80;99.90
52034;DHT22;38045;52.988;6.536;2023-05-16T04:09:47;6.80;99.90
52034;DHT22;38045;52.988;6.536;2023-05-16T04:12:13;6.80;99.90
52034;DHT22;38045;52.988;6.536;2023-05-16T04:14:39;6.90;99.90
52034;DHT22;38045;52.988;6.536;2023-05-16T04:17:04;6.90;99.90
52034;DHT22;38045;52.988;6.536;2023-05-16T04:19:30;6.90;99.90
52034;DHT22;38045;52.988;6.536;2023-05-16T04:21:56;6.90;99.90
52034;DHT22;38045;52.988;6.536;2023-05-16T04:24:21;6.90;99.90
52034;DHT22;38045;52.988;6.536;2023-05-16T04:26:50;7.00;99.90
52034;DHT22;38045;52.988;6.536;2023-05-16T04:29:16;7.00;99.90
52034;DHT22;38045;52.988;6.536;2023-05-16T04:31:42;7.00;99.90
52034;DHT22;38045;52.988;6.536;2023-05-16T04:34:07;7.00;99.90
52034;DHT22;38045;52.988;6.536;2023-05-16T04:36:33;7.00;99.90
52034;DHT22;38045;52.988;6.536;2023-05-16T04:38:59;7.10;99.90
52034;DHT22;38045;52.988;6.536;2023-05-16T04:41:25;7.10;99.90
52034;DHT22;38045;52.988;6.536;2023-05-16T04:43:51;7.10;99.90
52034;DHT22;38045;52.988;6.536;2023-05-16T04:46:17;7.20;99.90
52034;DHT22;38045;52.988;6.536;2023-05-16T04:48:43;7.20;99.90
52034;DHT22;38045;52.988;6.536;2023-05-16T04:51:08;7.20;99.90
52034;DHT22;38045;52.988;6.536;2023-05-16T04:53:34;7.20;99.90
52034;DHT22;38045;52.988;6.536;2023-05-16T04:56:00;7.20;99.90
52034;DHT22;38045;52.988;6.536;2023-05-16T04:58:25;7.20;99.90
52034;DHT22;38045;52.988;6.536;2023-05-16T05:00:51;7.20;99.90
52034;DHT22;38045;52.988;6.536;2023-05-16T05:03:17;7.30;99.90
52034;DHT22;38045;52.988;6.536;2023-05-16T05:05:43;7.30;99.90
52034;DHT22;38045;52.988;6.536;2023-05-16T05:08:09;7.40;99.90
52034;DHT22;38045;52.988;6.536;2023-05-16T05:10:35;7.40;99.90
52034;DHT22;38045;52.988;6.536;2023-05-16T05:13:00;7.40;99.90
52034;DHT22;38045;52.988;6.536;2023-05-16T05:15:26;7.40;99.90
52034;DHT22;38045;52.988;6.536;2023-05-16T05:17:52;7.40;99.90
52034;DHT22;38045;52.988;6.536;2023-05-16T05:20:17;7.50;99.90
52034;DHT22;38045;52.988;6.536;2023-05-16T05:22:43;7.60;99.90
52034;DHT22;38045;52.988;6.536;2023-05-16T05:25:09;7.70;99.90
52034;DHT22;38045;52.988;6.536;2023-05-16T05:27:35;7.90;99.90
52034;DHT22;38045;52.988;6.536;2023-05-16T05:30:01;7.90;99.90
52034;DHT22;38045;52.988;6.536;2023-05-16T05:32:26;8.00;99.90
52034;DHT22;38045;52.988;6.536;2023-05-16T05:34:52;8.00;99.90
52034;DHT22;38045;52.988;6.536;2023-05-16T05:37:18;8.10;99.90
52034;DHT22;38045;52.988;6.536;2023-05-16T05:39:43;8.20;99.90
52034;DHT22;38045;52.988;6.536;2023-05-16T05:42:09;8.30;99.90
52034;DHT22;38045;52.988;6.536;2023-05-16T05:44:36;8.40;99.90
52034;DHT22;38045;52.988;6.536;2023-05-16T05:47:02;8.50;99.90
52034;DHT22;38045;52.988;6.536;2023-05-16T05:49:28;8.60;99.90
52034;DHT22;38045;52.988;6.536;2023-05-16T05:51:54;8.70;99.90
52034;DHT22;38045;52.988;6.536;2023-05-16T05:54:20;8.80;99.90
52034;DHT22;38045;52.988;6.536;2023-05-16T05:56:46;8.90;99.90
52034;DHT22;38045;52.988;6.536;2023-05-16T05:59:12;9.00;99.90
52034;DHT22;38045;52.988;6.536;2023-05-16T06:01:37;9.10;99.90
52034;DHT22;38045;52.988;6.536;2023-05-16T06:04:04;9.20;99.90
52034;DHT22;38045;52.988;6.536;2023-05-16T06:06:30;9.30;99.90
52034;DHT22;38045;52.988;6.536;2023-05-16T06:08:56;9.30;99.90
52034;DHT22;38045;52.988;6.536;2023-05-16T06:11:22;9.40;99.90
52034;DHT22;38045;52.988;6.536;2023-05-16T06:13:50;9.50;99.90
52034;DHT22;38045;52.988;6.536;2023-05-16T06:16:16;9.70;99.90
52034;DHT22;38045;52.988;6.536;2023-05-16T06:18:42;9.70;99.90
52034;DHT22;38045;52.988;6.536;2023-05-16T06:21:07;9.80;99.90
52034;DHT22;38045;52.988;6.536;2023-05-16T06:23:33;9.90;99.90
52034;DHT22;38045;52.988;6.536;2023-05-16T06:26:00;10.00;99.90
52034;DHT22;38045;52.988;6.536;2023-05-16T06:28:26;10.10;99.90
52034;DHT22;38045;52.988;6.536;2023-05-16T06:30:51;10.20;99.90
52034;DHT22;38045;52.988;6.536;2023-05-16T06:33:17;10.20;99.90
52034;DHT22;38045;52.988;6.536;2023-05-16T06:35:43;10.50;99.90
52034;DHT22;38045;52.988;6.536;2023-05-16T06:38:10;10.60;99.90
52034;DHT22;38045;52.988;6.536;2023-05-16T06:40:35;10.60;99.90
52034;DHT22;38045;52.988;6.536;2023-05-16T06:43:02;10.60;99.90
52034;DHT22;38045;52.988;6.536;2023-05-16T06:45:28;10.50;99.90
52034;DHT22;38045;52.988;6.536;2023-05-16T06:47:54;10.30;99.90
52034;DHT22;38045;52.988;6.536;2023-05-16T06:50:20;10.20;99.90
52034;DHT22;38045;52.988;6.536;2023-05-16T06:52:46;10.10;99.90
52034;DHT22;38045;52.988;6.536;2023-05-16T06:55:11;10.00;99.90
52034;DHT22;38045;52.988;6.536;2023-05-16T06:57:37;10.00;99.90
52034;DHT22;38045;52.988;6.536;2023-05-16T07:00:03;10.10;99.90
52034;DHT22;38045;52.988;6.536;2023-05-16T07:02:29;10.20;99.90
52034;DHT22;38045;52.988;6.536;2023-05-16T07:04:55;10.30;99.90
52034;DHT22;38045;52.988;6.536;2023-05-16T07:07:21;10.40;99.90
52034;DHT22;38045;52.988;6.536;2023-05-16T07:09:46;10.50;99.90
52034;DHT22;38045;52.988;6.536;2023-05-16T07:12:12;10.70;99.90
52034;DHT22;38045;52.988;6.536;2023-05-16T07:14:38;10.70;99.90
52034;DHT22;38045;52.988;6.536;2023-05-16T07:17:04;10.80;99.90
52034;DHT22;38045;52.988;6.536;2023-05-16T07:19:30;10.80;99.90
52034;DHT22;38045;52.988;6.536;2023-05-16T07:21:56;10.90;99.90
52034;DHT22;38045;52.988;6.536;2023-05-16T07:24:22;11.00;99.90
52034;DHT22;38045;52.988;6.536;2023-05-16T07:26:47;11.20;99.90
52034;DHT22;38045;52.988;6.536;2023-05-16T07:29:13;11.20;99.90
52034;DHT22;38045;52.988;6.536;2023-05-16T07:31:38;11.40;99.90
52034;DHT22;38045;52.988;6.536;2023-05-16T07:34:04;11.50;99.90
52034;DHT22;38045;52.988;6.536;2023-05-16T07:36:30;11.50;99.90
52034;DHT22;38045;52.988;6.536;2023-05-16T07:38:56;11.50;99.90
52034;DHT22;38045;52.988;6.536;2023-05-16T07:41:21;11.60;99.90
52034;DHT22;38045;52.988;6.536;2023-05-16T07:43:47;11.60;99.90
52034;DHT22;38045;52.988;6.536;2023-05-16T07:46:13;11.60;99.90
52034;DHT22;38045;52.988;6.536;2023-05-16T07:48:38;11.70;99.90
52034;DHT22;38045;52.988;6.536;2023-05-16T07:51:04;11.80;99.90
52034;DHT22;38045;52.988;6.536;2023-05-16T07:53:29;11.90;99.90
52034;DHT22;38045;52.988;6.536;2023-05-16T07:55:55;12.00;99.90
52034;DHT22;38045;52.988;6.536;2023-05-16T07:58:21;12.10;99.90
52034;DHT22;38045;52.988;6.536;2023-05-16T08:00:46;12.10;99.90
52034;DHT22;38045;52.988;6.536;2023-05-16T08:03:12;12.10;99.90
52034;DHT22;38045;52.988;6.536;2023-05-16T08:05:38;12.00;99.90
52034;DHT22;38045;52.988;6.536;2023-05-16T08:08:04;11.70;99.90
52034;DHT22;38045;52.988;6.536;2023-05-16T08:10:30;11.50;99.90
52034;DHT22;38045;52.988;6.536;2023-05-16T08:12:55;11.50;99.90
52034;DHT22;38045;52.988;6.536;2023-05-16T08:15:21;11.70;99.90
52034;DHT22;38045;52.988;6.536;2023-05-16T08:17:47;11.90;99.90
52034;DHT22;38045;52.988;6.536;2023-05-16T08:20:12;11.90;99.90
52034;DHT22;38045;52.988;6.536;2023-05-16T08:22:38;12.00;99.90
52034;DHT22;38045;52.988;6.536;2023-05-16T08:25:04;12.10;99.90
52034;DHT22;38045;52.988;6.536;2023-05-16T08:27:30;12.10;99.90
52034;DHT22;38045;52.988;6.536;2023-05-16T08:29:55;12.00;99.90
52034;DHT22;38045;52.988;6.536;2023-05-16T08:32:21;12.00;99.90
52034;DHT22;38045;52.988;6.536;2023-05-16T08:34:47;12.00;99.90
52034;DHT22;38045;52.988;6.536;2023-05-16T08:37:13;12.10;99.90
52034;DHT22;38045;52.988;6.536;2023-05-16T08:39:39;12.10;99.90
52034;DHT22;38045;52.988;6.536;2023-05-16T08:42:05;12.10;99.90
52034;DHT22;38045;52.988;6.536;2023-05-16T08:44:31;12.20;99.90
52034;DHT22;38045;52.988;6.536;2023-05-16T08:47:09;12.40;99.90
52034;DHT22;38045;52.988;6.536;2023-05-16T08:49:38;12.50;99.90
52034;DHT22;38045;52.988;6.536;2023-05-16T08:52:07;12.70;99.90
52034;DHT22;38045;52.988;6.536;2023-05-16T08:54:34;12.80;99.90
52034;DHT22;38045;52.988;6.536;2023-05-16T08:57:00;12.90;99.90
52034;DHT22;38045;52.988;6.536;2023-05-16T08:59:27;13.00;99.90
52034;DHT22;38045;52.988;6.536;2023-05-16T09:01:54;13.00;99.90
52034;DHT22;38045;52.988;6.536;2023-05-16T09:04:19;13.10;99.90
52034;DHT22;38045;52.988;6.536;2023-05-16T09:06:46;13.20;99.90
52034;DHT22;38045;52.988;6.536;2023-05-16T09:09:12;13.30;99.90
52034;DHT22;38045;52.988;6.536;2023-05-16T09:11:38;13.20;99.90
52034;DHT22;38045;52.988;6.536;2023-05-16T09:14:04;13.00;99.90
52034;DHT22;38045;52.988;6.536;2023-05-16T09:16:30;12.70;99.90
52034;DHT22;38045;52.988;6.536;2023-05-16T09:18:57;12.60;99.90
52034;DHT22;38045;52.988;6.536;2023-05-16T09:21:31;12.60;99.90
52034;DHT22;38045;52.988;6.536;2023-05-16T09:24:03;12.90;99.90
52034;DHT22;38045;52.988;6.536;2023-05-16T09:26:31;13.20;99.90
52034;DHT22;38045;52.988;6.536;2023-05-16T09:28:57;13.20;99.90
52034;DHT22;38045;52.988;6.536;2023-05-16T09:31:24;13.30;99.90
52034;DHT22;38045;52.988;6.536;2023-05-16T09:33:56;13.40;99.90
52034;DHT22;38045;52.988;6.536;2023-05-16T09:36:22;13.60;99.90
52034;DHT22;38045;52.988;6.536;2023-05-16T09:38:51;13.90;99.90
52034;DHT22;38045;52.988;6.536;2023-05-16T09:41:17;13.80;99.90
52034;DHT22;38045;52.988;6.536;2023-05-16T09:43:43;13.50;99.90
52034;DHT22;38045;52.988;6.536;2023-05-16T09:46:13;13.20;99.90
52034;DHT22;38045;52.988;6.536;2023-05-16T09:48:44;13.00;99.90
52034;DHT22;38045;52.988;6.536;2023-05-16T09:51:11;12.70;99.90
52034;DHT22;38045;52.988;6.536;2023-05-16T09:53:38;12.60;99.90
52034;DHT22;38045;52.988;6.536;2023-05-16T09:58:34;12.20;99.90
52034;DHT22;38045;52.988;6.536;2023-05-16T10:01:01;12.30;99.90
52034;DHT22;38045;52.988;6.536;2023-05-16T10:03:27;12.70;99.90
52034;DHT22;38045;52.988;6.536;2023-05-16T10:05:53;13.00;99.90
52034;DHT22;38045;52.988;6.536;2023-05-16T10:08:24;13.30;99.90
52034;DHT22;38045;52.988;6.536;2023-05-16T10:10:55;13.50;99.90
52034;DHT22;38045;52.988;6.536;2023-05-16T10:13:24;13.50;99.90
52034;DHT22;38045;52.988;6.536;2023-05-16T10:15:55;13.70;99.90
52034;DHT22;38045;52.988;6.536;2023-05-16T10:18:22;14.00;99.90
52034;DHT22;38045;52.988;6.536;2023-05-16T10:20:50;14.00;99.90
52034;DHT22;38045;52.988;6.536;2023-05-16T10:23:19;14.10;99.90
52034;DHT22;38045;52.988;6.536;2023-05-16T10:25:46;13.90;99.90
52034;DHT22;38045;52.988;6.536;2023-05-16T10:28:13;13.80;99.90
52034;DHT22;38045;52.988;6.536;2023-05-16T10:30:43;13.80;99.90
52034;DHT22;38045;52.988;6.536;2023-05-16T10:33:13;13.60;99.90
52034;DHT22;38045;52.988;6.536;2023-05-16T10:35:40;13.40;99.90
52034;DHT22;38045;52.988;6.536;2023-05-16T10:38:07;13.20;99.90
52034;DHT22;38045;52.988;6.536;2023-05-16T10:40:38;13.10;99.90
52034;DHT22;38045;52.988;6.536;2023-05-16T10:43:05;13.20;99.90
52034;DHT22;38045;52.988;6.536;2023-05-16T10:45:31;13.50;99.90
52034;DHT22;38045;52.988;6.536;2023-05-16T10:48:04;13.70;99.90
52034;DHT22;38045;52.988;6.536;2023-05-16T10:50:42;14.00;99.90
52034;DHT22;38045;52.988;6.536;2023-05-16T10:53:21;14.20;99.90
52034;DHT22;38045;52.988;6.536;2023-05-16T11:01:27;14.60;99.00
52034;DHT22;38045;52.988;6.536;2023-05-16T11:06:30;14.20;99.90
52034;DHT22;38045;52.988;6.536;2023-05-16T11:24:58;14.20;99.90
52034;DHT22;38045;52.988;6.536;2023-05-16T11:30:00;14.10;99.90
52034;DHT22;38045;52.988;6.536;2023-05-16T11:32:26;14.10;99.90
52034;DHT22;38045;52.988;6.536;2023-05-16T11:34:52;14.30;99.90
52034;DHT22;38045;52.988;6.536;2023-05-16T11:37:19;14.50;99.90
52034;DHT22;38045;52.988;6.536;2023-05-16T11:39:45;14.50;99.90
52034;DHT22;38045;52.988;6.536;2023-05-16T11:42:11;14.40;99.90
52034;DHT22;38045;52.988;6.536;2023-05-16T11:44:38;14.60;99.90
52034;DHT22;38045;52.988;6.536;2023-05-16T11:47:04;14.70;99.90
52034;DHT22;38045;52.988;6.536;2023-05-16T11:49:30;14.50;99.90
52034;DHT22;38045;52.988;6.536;2023-05-16T11:51:56;14.50;99.90
52034;DHT22;38045;52.988;6.536;2023-05-16T11:54:24;14.40;99.90
52034;DHT22;38045;52.988;6.536;2023-05-16T11:56:50;14.20;99.90
52034;DHT22;38045;52.988;6.536;2023-05-16T11:59:17;14.40;99.90
52034;DHT22;38045;52.988;6.536;2023-05-16T12:01:43;14.80;99.90
52034;DHT22;38045;52.988;6.536;2023-05-16T12:04:12;15.20;99.90
52034;DHT22;38045;52.988;6.536;2023-05-16T12:06:38;15.40;99.90
52034;DHT22;38045;52.988;6.536;2023-05-16T12:09:05;15.30;99.90
52034;DHT22;38045;52.988;6.536;2023-05-16T12:11:38;14.80;99.90
52034;DHT22;38045;52.988;6.536;2023-05-16T12:14:10;14.50;99.90
52034;DHT22;38045;52.988;6.536;2023-05-16T12:16:37;14.20;99.90
52034;DHT22;38045;52.988;6.536;2023-05-16T12:19:06;14.10;99.90
52034;DHT22;38045;52.988;6.536;2023-05-16T12:21:32;14.00;99.90
52034;DHT22;38045;52.988;6.536;2023-05-16T12:23:58;14.30;99.90
52034;DHT22;38045;52.988;6.536;2023-05-16T12:26:29;14.20;99.90
52034;DHT22;38045;52.988;6.536;2023-05-16T12:29:01;14.50;99.90
52034;DHT22;38045;52.988;6.536;2023-05-16T12:31:40;14.40;99.90
52034;DHT22;38045;52.988;6.536;2023-05-16T12:34:16;14.10;99.90
52034;DHT22;38045;52.988;6.536;2023-05-16T12:36:42;13.90;99.90
52034;DHT22;38045;52.988;6.536;2023-05-16T12:39:11;13.70;99.90
52034;DHT22;38045;52.988;6.536;2023-05-16T12:41:40;13.90;99.90
52034;DHT22;38045;52.988;6.536;2023-05-16T12:44:11;14.10;99.90
52034;DHT22;38045;52.988;6.536;2023-05-16T12:46:42;14.20;99.90
52034;DHT22;38045;52.988;6.536;2023-05-16T12:49:07;14.40;99.90
52034;DHT22;38045;52.988;6.536;2023-05-16T12:51:33;14.70;99.90
52034;DHT22;38045;52.988;6.536;2023-05-16T12:54:09;14.80;99.90
52034;DHT22;38045;52.988;6.536;2023-05-16T12:56:36;14.60;99.90
52034;DHT22;38045;52.988;6.536;2023-05-16T12:59:02;14.70;99.90
52034;DHT22;38045;52.988;6.536;2023-05-16T13:01:28;14.40;99.90
52034;DHT22;38045;52.988;6.536;2023-05-16T13:03:53;14.30;99.90
52034;DHT22;38045;52.988;6.536;2023-05-16T13:06:19;14.30;99.90
52034;DHT22;38045;52.988;6.536;2023-05-16T13:08:45;14.20;99.90
52034;DHT22;38045;52.988;6.536;2023-05-16T13:11:11;13.90;99.90
52034;DHT22;38045;52.988;6.536;2023-05-16T13:13:37;13.70;99.90
52034;DHT22;38045;52.988;6.536;2023-05-16T13:16:02;13.60;99.90
52034;DHT22;38045;52.988;6.536;2023-05-16T13:18:28;13.60;99.90
52034;DHT22;38045;52.988;6.536;2023-05-16T13:20:54;13.60;99.90
52034;DHT22;38045;52.988;6.536;2023-05-16T13:23:20;13.70;99.90
52034;DHT22;38045;52.988;6.536;2023-05-16T13:25:46;13.90;99.90
52034;DHT22;38045;52.988;6.536;2023-05-16T13:28:11;13.90;99.90
52034;DHT22;38045;52.988;6.536;2023-05-16T13:30:37;13.80;99.90
52034;DHT22;38045;52.988;6.536;2023-05-16T13:33:03;13.60;99.90
52034;DHT22;38045;52.988;6.536;2023-05-16T13:35:29;13.50;99.90
52034;DHT22;38045;52.988;6.536;2023-05-16T13:37:54;13.40;99.90
52034;DHT22;38045;52.988;6.536;2023-05-16T13:40:20;13.30;99.90
52034;DHT22;38045;52.988;6.536;2023-05-16T13:42:46;13.40;99.90
52034;DHT22;38045;52.988;6.536;2023-05-16T13:45:11;13.40;99.90
52034;DHT22;38045;52.988;6.536;2023-05-16T13:47:37;13.50;99.90
52034;DHT22;38045;52.988;6.536;2023-05-16T13:50:03;13.70;99.90
52034;DHT22;38045;52.988;6.536;2023-05-16T13:52:33;14.00;99.90
52034;DHT22;38045;52.988;6.536;2023-05-16T13:54:59;14.00;99.90
52034;DHT22;38045;52.988;6.536;2023-05-16T13:57:24;13.90;99.90
52034;DHT22;38045;52.988;6.536;2023-05-16T13:59:52;13.70;99.90
52034;DHT22;38045;52.988;6.536;2023-05-16T14:02:18;13.70;99.90
52034;DHT22;38045;52.988;6.536;2023-05-16T14:04:44;13.50;99.90
52034;DHT22;38045;52.988;6.536;2023-05-16T14:07:09;13.60;99.90
52034;DHT22;38045;52.988;6.536;2023-05-16T14:09:35;13.60;99.90
52034;DHT22;38045;52.988;6.536;2023-05-16T14:12:07;13.50;99.90
52034;DHT22;38045;52.988;6.536;2023-05-16T14:14:36;13.20;99.90
52034;DHT22;38045;52.988;6.536;2023-05-16T14:17:02;12.70;99.90
52034;DHT22;38045;52.988;6.536;2023-05-16T14:19:29;12.20;99.90
52034;DHT22;38045;52.988;6.536;2023-05-16T14:21:54;11.90;99.90
52034;DHT22;38045;52.988;6.536;2023-05-16T14:24:20;11.60;99.90
52034;DHT22;38045;52.988;6.536;2023-05-16T14:26:46;11.50;99.90
52034;DHT22;38045;52.988;6.536;2023-05-16T14:29:11;11.40;99.90
52034;DHT22;38045;52.988;6.536;2023-05-16T14:31:38;11.40;99.90
52034;DHT22;38045;52.988;6.536;2023-05-16T14:34:04;11.60;99.90
52034;DHT22;38045;52.988;6.536;2023-05-16T14:36:30;11.90;99.90
52034;DHT22;38045;52.988;6.536;2023-05-16T14:38:56;12.20;99.90
52034;DHT22;38045;52.988;6.536;2023-05-16T14:41:22;12.50;99.90
52034;DHT22;38045;52.988;6.536;2023-05-16T14:43:48;12.60;99.90
52034;DHT22;38045;52.988;6.536;2023-05-16T14:46:13;12.60;99.90
52034;DHT22;38045;52.988;6.536;2023-05-16T14:48:39;12.50;99.90
52034;DHT22;38045;52.988;6.536;2023-05-16T14:51:05;12.30;99.90
52034;DHT22;38045;52.988;6.536;2023-05-16T14:53:34;12.20;99.90
52034;DHT22;38045;52.988;6.536;2023-05-16T14:56:00;12.10;99.90
52034;DHT22;38045;52.988;6.536;2023-05-16T14:58:27;12.00;99.90
52034;DHT22;38045;52.988;6.536;2023-05-16T15:00:52;12.00;99.90
52034;DHT22;38045;52.988;6.536;2023-05-16T15:03:18;12.00;99.90
52034;DHT22;38045;52.988;6.536;2023-05-16T15:05:44;11.90;99.90
52034;DHT22;38045;52.988;6.536;2023-05-16T15:08:10;11.90;99.90
52034;DHT22;38045;52.988;6.536;2023-05-16T15:10:35;11.90;99.90
52034;DHT22;38045;52.988;6.536;2023-05-16T15:13:01;12.00;99.90
52034;DHT22;38045;52.988;6.536;2023-05-16T15:15:27;12.00;99.90
52034;DHT22;38045;52.988;6.536;2023-05-16T15:17:53;12.00;99.90
52034;DHT22;38045;52.988;6.536;2023-05-16T15:20:20;12.00;99.90
52034;DHT22;38045;52.988;6.536;2023-05-16T15:22:46;11.90;99.90
52034;DHT22;38045;52.988;6.536;2023-05-16T15:25:12;11.90;99.90
52034;DHT22;38045;52.988;6.536;2023-05-16T15:27:37;11.90;99.90
52034;DHT22;38045;52.988;6.536;2023-05-16T15:30:03;12.00;99.90
52034;DHT22;38045;52.988;6.536;2023-05-16T15:32:29;12.00;99.90
52034;DHT22;38045;52.988;6.536;2023-05-16T15:34:54;12.00;99.90
52034;DHT22;38045;52.988;6.536;2023-05-16T15:37:20;12.00;99.90
52034;DHT22;38045;52.988;6.536;2023-05-16T15:39:46;12.10;99.90
52034;DHT22;38045;52.988;6.536;2023-05-16T15:42:12;12.10;99.90
52034;DHT22;38045;52.988;6.536;2023-05-16T15:44:38;12.20;99.90
52034;DHT22;38045;52.988;6.536;2023-05-16T15:47:04;12.30;99.90
52034;DHT22;38045;52.988;6.536;2023-05-16T15:49:30;12.30;99.90
52034;DHT22;38045;52.988;6.536;2023-05-16T15:51:56;12.40;99.90
52034;DHT22;38045;52.988;6.536;2023-05-16T15:54:21;12.50;99.90
52034;DHT22;38045;52.988;6.536;2023-05-16T15:56:47;12.50;99.90
52034;DHT22;38045;52.988;6.536;2023-05-16T15:59:12;12.60;99.90
52034;DHT22;38045;52.988;6.536;2023-05-16T16:01:38;12.50;99.90
52034;DHT22;38045;52.988;6.536;2023-05-16T16:04:04;12.50;99.90
52034;DHT22;38045;52.988;6.536;2023-05-16T16:06:30;12.40;99.90
52034;DHT22;38045;52.988;6.536;2023-05-16T16:08:56;12.40;99.90
52034;DHT22;38045;52.988;6.536;2023-05-16T16:11:21;12.30;99.90
52034;DHT22;38045;52.988;6.536;2023-05-16T16:13:47;12.00;99.90
52034;DHT22;38045;52.988;6.536;2023-05-16T16:16:14;11.80;99.90